Time,TemperatureF,DewpointF,PressureIn,WindDirection,WindDirectionDegrees,WindSpeedMPH,WindSpeedGustMPH,Humidity,HourlyPrecipIn,Conditions,Clouds,dailyrainin,SoftwareType,DateUTC
2013-10-02 00:14:00,73.0,69.0,30.05,ENE,59,4.0,6.0,87,-99.99,,,-99.99,,2013-10-02 04:14:00,
2013-10-02 00:54:00,73.0,69.0,30.05,NE,51,5.0,7.0,87,-99.99,,,-99.99,,2013-10-02 04:54:00,
2013-10-02 01:13:00,73.0,69.0,30.04,NE,53,6.0,8.0,87,-99.99,,,-99.99,,2013-10-02 05:13:00,
2013-10-02 01:23:00,72.0,68.0,30.04,NE,54,6.0,9.0,88,-99.99,,,-99.99,,2013-10-02 05:23:00,
2013-10-02 01:33:00,72.0,68.0,30.04,NE,54,6.0,9.0,88,-99.99,,,-99.99,,2013-10-02 05:33:00,
2013-10-02 01:53:00,72.0,68.0,30.04,NE,50,6.0,10.0,89,-99.99,,,-99.99,,2013-10-02 05:53:00,
2013-10-02 02:22:00,72.0,68.0,30.04,ENE,57,6.0,8.0,88,-99.99,,,-99.99,,2013-10-02 06:22:00,
2013-10-02 02:32:00,72.0,68.0,30.04,ENE,57,6.0,8.0,88,-99.99,,,-99.99,,2013-10-02 06:32:00,
2013-10-02 02:52:00,72.0,68.0,30.04,NE,48,7.0,9.0,89,-99.99,,,-99.99,,2013-10-02 06:52:00,
2013-10-02 03:02:00,72.0,68.0,30.04,NE,48,7.0,9.0,89,-99.99,,,-99.99,,2013-10-02 07:02:00,
2013-10-02 03:22:00,72.0,69.0,30.03,NE,48,6.0,9.0,89,-99.99,,,-99.99,,2013-10-02 07:22:00,
2013-10-02 03:32:00,72.0,69.0,30.03,NE,48,6.0,9.0,89,-99.99,,,-99.99,,2013-10-02 07:32:00,
2013-10-02 03:52:00,72.0,69.0,30.02,NE,47,6.0,9.0,89,-99.99,,,-99.99,,2013-10-02 07:52:00,
2013-10-02 04:03:00,72.0,69.0,30.02,NE,47,6.0,9.0,89,-99.99,,,-99.99,,2013-10-02 08:03:00,
2013-10-02 04:22:00,71.0,68.0,30.02,NE,53,5.0,7.0,90,-99.99,,,-99.99,,2013-10-02 08:22:00,
2013-10-02 04:32:00,71.0,68.0,30.02,NE,53,5.0,7.0,90,-99.99,,,-99.99,,2013-10-02 08:32:00,
2013-10-02 04:52:00,72.0,69.0,30.01,NE,55,5.0,8.0,90,-99.99,,,-99.99,,2013-10-02 08:52:00,
2013-10-02 05:02:00,72.0,69.0,30.01,NE,55,5.0,8.0,90,-99.99,,,-99.99,,2013-10-02 09:02:00,
2013-10-02 05:22:00,71.0,69.0,30.01,NE,51,7.0,9.0,91,-99.99,,,-99.99,,2013-10-02 09:22:00,
2013-10-02 05:33:00,71.0,69.0,30.01,NE,51,7.0,9.0,91,-99.99,,,-99.99,,2013-10-02 09:33:00,
2013-10-02 05:54:00,71.0,68.0,30.01,ENE,60,5.0,7.0,90,-99.99,,,-99.99,,2013-10-02 09:54:00,
2013-10-02 06:03:00,71.0,68.0,30.01,ENE,60,5.0,7.0,90,-99.99,,,-99.99,,2013-10-02 10:03:00,
2013-10-02 06:23:00,71.0,68.0,30.01,NE,50,6.0,8.0,91,-99.99,,,-99.99,,2013-10-02 10:23:00,
2013-10-02 06:33:00,71.0,68.0,30.01,NE,50,6.0,8.0,91,-99.99,,,-99.99,,2013-10-02 10:33:00,
2013-10-02 06:53:00,71.0,68.0,30.01,NE,49,7.0,9.0,90,-99.99,,,-99.99,,2013-10-02 10:53:00,
2013-10-02 07:03:00,71.0,68.0,30.01,NE,49,7.0,9.0,90,-99.99,,,-99.99,,2013-10-02 11:03:00,
2013-10-02 07:22:00,72.0,69.0,30.02,NE,39,10.0,13.0,89,-99.99,,,-99.99,,2013-10-02 11:22:00,
2013-10-02 07:33:00,72.0,69.0,30.02,NE,39,10.0,13.0,89,-99.99,,,-99.99,,2013-10-02 11:33:00,
2013-10-02 07:52:00,71.0,69.0,30.02,NE,49,5.0,7.0,91,-99.99,,,-99.99,,2013-10-02 11:52:00,
2013-10-02 08:02:00,71.0,69.0,30.02,NE,49,5.0,7.0,91,-99.99,,,-99.99,,2013-10-02 12:02:00,
2013-10-02 08:22:00,71.0,69.0,30.03,NE,48,6.0,9.0,92,-99.99,,,-99.99,,2013-10-02 12:22:00,
2013-10-02 08:32:00,71.0,69.0,30.03,NE,48,6.0,9.0,92,-99.99,,,-99.99,,2013-10-02 12:32:00,
2013-10-02 08:52:00,72.0,68.0,30.03,NE,52,7.0,9.0,88,-99.99,,,-99.99,,2013-10-02 12:52:00,
2013-10-02 09:02:00,72.0,68.0,30.03,NE,52,7.0,9.0,88,-99.99,,,-99.99,,2013-10-02 13:02:00,
2013-10-02 09:22:00,74.0,70.0,30.03,NE,44,10.0,13.0,84,-99.99,,,-99.99,,2013-10-02 13:22:00,
2013-10-02 09:32:00,74.0,70.0,30.03,NE,44,10.0,13.0,84,-99.99,,,-99.99,,2013-10-02 13:32:00,
2013-10-02 09:52:00,76.0,70.0,30.04,NE,37,10.0,12.0,80,-99.99,,,-99.99,,2013-10-02 13:52:00,
2013-10-02 10:02:00,76.0,70.0,30.04,NE,37,10.0,12.0,80,-99.99,,,-99.99,,2013-10-02 14:02:00,
2013-10-02 10:21:00,77.0,70.0,30.05,NE,47,9.0,13.0,77,-99.99,,,-99.99,,2013-10-02 14:21:00,
2013-10-02 10:32:00,77.0,70.0,30.05,NE,47,9.0,13.0,77,-99.99,,,-99.99,,2013-10-02 14:32:00,
2013-10-02 10:52:00,78.0,70.0,30.05,NE,49,10.0,15.0,74,-99.99,,,-99.99,,2013-10-02 14:52:00,
2013-10-02 11:02:00,78.0,70.0,30.05,NE,49,10.0,15.0,74,-99.99,,,-99.99,,2013-10-02 15:02:00,
2013-10-02 11:22:00,79.0,70.0,30.04,NE,52,11.0,15.0,73,-99.99,,,-99.99,,2013-10-02 15:22:00,
2013-10-02 11:33:00,79.0,70.0,30.04,NE,52,11.0,15.0,73,-99.99,,,-99.99,,2013-10-02 15:33:00,
2013-10-02 11:54:00,80.0,71.0,30.04,NE,51,9.0,15.0,71,-99.99,,,-99.99,,2013-10-02 15:54:00,
2013-10-02 12:03:00,80.0,71.0,30.04,NE,51,9.0,15.0,71,-99.99,,,-99.99,,2013-10-02 16:03:00,
2013-10-02 12:23:00,81.0,70.0,30.04,NE,55,8.0,12.0,68,-99.99,,,-99.99,,2013-10-02 16:23:00,
2013-10-02 12:33:00,81.0,70.0,30.04,NE,55,8.0,12.0,68,-99.99,,,-99.99,,2013-10-02 16:33:00,
2013-10-02 12:53:00,82.0,70.0,30.03,NE,41,11.0,16.0,66,-99.99,,,-99.99,,2013-10-02 16:53:00,
2013-10-02 13:02:00,82.0,70.0,30.03,NE,41,11.0,16.0,66,-99.99,,,-99.99,,2013-10-02 17:02:00,
2013-10-02 13:23:00,83.0,69.0,30.02,ENE,59,10.0,16.0,62,-99.99,,,-99.99,,2013-10-02 17:23:00,
2013-10-02 13:33:00,83.0,69.0,30.02,ENE,59,10.0,16.0,62,-99.99,,,-99.99,,2013-10-02 17:33:00,
2013-10-02 13:53:00,84.0,69.0,30.01,NE,56,7.0,15.0,61,-99.99,,,-99.99,,2013-10-02 17:53:00,
2013-10-02 14:02:00,84.0,69.0,30.01,NE,56,7.0,15.0,61,-99.99,,,-99.99,,2013-10-02 18:02:00,
2013-10-02 14:22:00,84.0,69.0,29.99,ENE,57,9.0,17.0,59,-99.99,,,-99.99,,2013-10-02 18:22:00,
2013-10-02 14:32:00,84.0,69.0,29.99,ENE,57,9.0,17.0,59,-99.99,,,-99.99,,2013-10-02 18:32:00,
2013-10-02 14:52:00,85.0,69.0,29.99,ENE,70,7.0,14.0,59,-99.99,,,-99.99,,2013-10-02 18:52:00,
2013-10-02 15:12:00,84.0,69.0,29.98,NE,49,9.0,15.0,59,-99.99,,,-99.99,,2013-10-02 19:12:00,
2013-10-02 15:22:00,85.0,69.0,29.98,NE,51,8.0,15.0,59,-99.99,,,-99.99,,2013-10-02 19:22:00,
2013-10-02 15:32:00,85.0,69.0,29.98,NE,51,8.0,15.0,59,-99.99,,,-99.99,,2013-10-02 19:32:00,
2013-10-02 15:52:00,85.0,69.0,29.98,ENE,67,7.0,13.0,58,-99.99,,,-99.99,,2013-10-02 19:52:00,
2013-10-02 16:02:00,85.0,69.0,29.98,ENE,67,7.0,13.0,58,-99.99,,,-99.99,,2013-10-02 20:02:00,
2013-10-02 16:22:00,85.0,69.0,29.97,NE,55,8.0,14.0,59,-99.99,,,-99.99,,2013-10-02 20:22:00,
2013-10-02 16:32:00,85.0,69.0,29.97,NE,55,8.0,14.0,59,-99.99,,,-99.99,,2013-10-02 20:32:00,
2013-10-02 16:52:00,85.0,69.0,29.96,ENE,65,8.0,13.0,58,-99.99,,,-99.99,,2013-10-02 20:52:00,
2013-10-02 17:02:00,85.0,69.0,29.96,ENE,65,8.0,13.0,58,-99.99,,,-99.99,,2013-10-02 21:02:00,
2013-10-02 17:22:00,84.0,69.0,29.96,NE,53,12.0,19.0,60,-99.99,,,-99.99,,2013-10-02 21:22:00,
2013-10-02 17:34:00,84.0,69.0,29.96,NE,53,12.0,19.0,60,-99.99,,,-99.99,,2013-10-02 21:34:00,
2013-10-02 17:55:00,84.0,68.0,29.96,ENE,73,8.0,15.0,59,-99.99,,,-99.99,,2013-10-02 21:55:00,
2013-10-02 18:13:00,83.0,68.0,29.96,NE,54,11.0,17.0,60,-99.99,,,-99.99,,2013-10-02 22:13:00,
2013-10-02 18:24:00,83.0,68.0,29.97,ENE,68,8.0,13.0,60,-99.99,,,-99.99,,2013-10-02 22:24:00,
2013-10-02 18:33:00,83.0,68.0,29.97,ENE,68,8.0,13.0,60,-99.99,,,-99.99,,2013-10-02 22:33:00,
2013-10-02 18:54:00,81.0,68.0,29.97,East,87,6.0,11.0,63,-99.99,,,-99.99,,2013-10-02 22:54:00,
2013-10-02 19:12:00,81.0,68.0,29.98,ENE,77,7.0,12.0,64,-99.99,,,-99.99,,2013-10-02 23:12:00,
2013-10-02 19:22:00,80.0,69.0,29.98,East,84,5.0,9.0,67,-99.99,,,-99.99,,2013-10-02 23:22:00,
2013-10-02 19:33:00,80.0,69.0,29.98,East,84,5.0,9.0,67,-99.99,,,-99.99,,2013-10-02 23:33:00,
2013-10-02 19:52:00,78.0,69.0,29.99,ENE,73,4.0,6.0,73,-99.99,,,-99.99,,2013-10-02 23:52:00,
2013-10-02 20:12:00,78.0,69.0,30.00,ENE,60,4.0,6.0,74,-99.99,,,-99.99,,2013-10-03 00:12:00,
2013-10-02 20:52:00,77.0,70.0,30.01,ENE,62,7.0,11.0,79,-99.99,,,-99.99,,2013-10-03 00:52:00,
2013-10-02 21:11:00,76.0,70.0,30.02,ENE,68,5.0,9.0,79,-99.99,,,-99.99,,2013-10-03 01:11:00,
2013-10-02 21:23:00,75.0,69.0,30.02,ENE,71,4.0,7.0,81,-99.99,,,-99.99,,2013-10-03 01:23:00,
2013-10-02 21:32:00,75.0,69.0,30.02,ENE,71,4.0,7.0,81,-99.99,,,-99.99,,2013-10-03 01:32:00,
2013-10-02 21:52:00,75.0,70.0,30.03,ENE,75,3.0,4.0,84,-99.99,,,-99.99,,2013-10-03 01:52:00,
2013-10-02 22:02:00,75.0,70.0,30.03,ENE,75,3.0,4.0,84,-99.99,,,-99.99,,2013-10-03 02:02:00,
2013-10-02 23:11:00,74.0,70.0,30.05,NE,52,5.0,8.0,86,-99.99,,,-99.99,,2013-10-03 03:11:00,
2013-10-02 23:22:00,74.0,70.0,30.05,NE,50,5.0,8.0,87,-99.99,,,-99.99,,2013-10-03 03:22:00,
2013-10-02 23:35:00,74.0,70.0,30.05,NE,50,5.0,8.0,87,-99.99,,,-99.99,,2013-10-03 03:35:00,
2013-10-02 23:55:00,74.0,69.0,30.05,NE,55,5.0,8.0,86,-99.99,,,-99.99,,2013-10-03 03:55:00,